Time;durP1;ratioP1;P1;durP2;ratioP2;P2;SDS_P1;SDS_P2;PMS_P1;PMS_P2;Temp;Humidity;BMP_temperature;BMP_pressure;BME280_temperature;BME280_humidity;BME280_pressure;Samples;Min_cycle;Max_cycle;Signal;HPM_P1;HPM_P2
2022/11/29 00:01:17;;;;;;;16.10;9.53;;;5.70;99.90;;;;;;5055611;28;20185;-82
2022/11/29 00:03:43;;;;;;;16.80;10.17;;;5.70;99.90;;;;;;5055265;28;20179;-82
2022/11/29 00:06:15;;;;;;;14.20;10.07;;;5.60;99.90;;;;;;5055061;28;20174;-82
2022/11/29 00:08:41;;;;;;;15.67;9.77;;;5.60;99.90;;;;;;5055033;28;20197;-82
2022/11/29 00:11:12;;;;;;;14.83;10.33;;;5.60;99.90;;;;;;5055233;28;20185;-82
2022/11/29 00:13:38;;;;;;;15.13;10.47;;;5.60;99.90;;;;;;5054458;28;20208;-82
2022/11/29 00:16:07;;;;;;;13.90;10.23;;;5.60;99.90;;;;;;5037036;28;20259;-82
2022/11/29 00:18:32;;;;;;;14.63;10.53;;;5.70;99.90;;;;;;5054990;28;20211;-82
2022/11/29 00:20:59;;;;;;;14.80;10.13;;;5.70;99.90;;;;;;5055175;28;20266;-82
2022/11/29 00:23:25;;;;;;;15.90;10.10;;;5.70;99.90;;;;;;5054685;28;20267;-82
2022/11/29 00:25:51;;;;;;;13.63;9.90;;;5.70;99.90;;;;;;5054736;28;20221;-82
2022/11/29 00:28:16;;;;;;;14.70;10.37;;;5.70;99.90;;;;;;5054657;28;20211;-82
2022/11/29 00:30:42;;;;;;;14.30;10.33;;;5.70;99.90;;;;;;5036898;28;20279;-82
2022/11/29 00:33:07;;;;;;;13.93;9.43;;;5.70;99.90;;;;;;5054264;28;20242;-82
2022/11/29 00:35:33;;;;;;;15.03;10.23;;;5.70;99.90;;;;;;5047766;28;20176;-82
2022/11/29 00:37:59;;;;;;;14.80;9.87;;;5.70;99.90;;;;;;5054534;28;20642;-82
2022/11/29 00:40:24;;;;;;;13.60;9.53;;;5.70;99.90;;;;;;5134682;22;20569;-79
2022/11/29 00:42:50;;;;;;;15.13;10.33;;;5.80;99.90;;;;;;5056944;28;20775;-80
2022/11/29 00:45:15;;;;;;;16.63;10.00;;;5.80;99.90;;;;;;5076379;28;20193;-79
2022/11/29 00:47:41;;;;;;;14.00;9.93;;;5.80;99.90;;;;;;5057667;28;20182;-79
2022/11/29 00:50:07;;;;;;;14.50;10.13;;;5.80;99.90;;;;;;5076003;28;20209;-81
2022/11/29 00:52:32;;;;;;;15.10;10.63;;;5.70;99.90;;;;;;5075999;28;20278;-79
2022/11/29 00:54:58;;;;;;;14.50;10.30;;;5.70;99.90;;;;;;5075794;28;20206;-79
2022/11/29 00:57:23;;;;;;;14.83;10.03;;;5.70;99.90;;;;;;5076109;28;20613;-80
2022/11/29 00:59:49;;;;;;;13.27;9.83;;;5.70;99.90;;;;;;5058119;28;20195;-82
2022/11/29 01:02:14;;;;;;;15.00;9.87;;;5.70;99.90;;;;;;5076149;28;20180;-77
2022/11/29 01:04:40;;;;;;;16.30;10.30;;;5.70;99.90;;;;;;5075517;28;20176;-80
2022/11/29 01:07:05;;;;;;;15.07;10.20;;;5.70;99.90;;;;;;5075568;28;20271;-79
2022/11/29 01:09:31;;;;;;;15.57;9.97;;;5.70;99.90;;;;;;5075674;28;20200;-79
2022/11/29 01:11:57;;;;;;;15.60;10.17;;;5.70;99.90;;;;;;5057684;28;20188;-79
2022/11/29 01:14:22;;;;;;;14.90;10.53;;;5.70;99.90;;;;;;5075316;28;20223;-80
2022/11/29 01:16:48;;;;;;;14.33;10.17;;;5.70;99.90;;;;;;5075326;28;20186;-80
2022/11/29 01:19:13;;;;;;;16.07;9.93;;;5.70;99.90;;;;;;5057460;28;20204;-79
2022/11/29 01:21:40;;;;;;;13.57;9.37;;;5.70;99.90;;;;;;5067905;28;20201;-79
2022/11/29 01:24:05;;;;;;;18.77;10.73;;;5.70;99.90;;;;;;5068677;28;20171;-79
2022/11/29 01:26:31;;;;;;;15.10;9.93;;;5.70;99.90;;;;;;5077004;28;20190;-80
2022/11/29 01:28:58;;;;;;;14.67;10.23;;;5.70;99.90;;;;;;5077616;28;20192;-79
2022/11/29 01:31:27;;;;;;;14.40;10.40;;;5.70;99.90;;;;;;5077232;28;20177;-80
2022/11/29 01:33:58;;;;;;;14.83;9.50;;;5.70;99.90;;;;;;5077169;28;20203;-79
2022/11/29 01:36:24;;;;;;;14.13;10.07;;;5.80;99.90;;;;;;5077253;28;20183;-79
2022/11/29 01:38:50;;;;;;;14.73;10.30;;;5.80;99.90;;;;;;5094932;28;20203;-79
2022/11/29 01:41:25;;;;;;;14.73;10.63;;;5.80;99.90;;;;;;5095574;28;20186;-79
2022/11/29 01:44:12;;;;;;;18.40;10.50;;;5.80;99.90;;;;;;5077050;28;20174;-79
2022/11/29 01:46:41;;;;;;;18.30;11.00;;;5.80;99.90;;;;;;5077068;28;20313;-79
2022/11/29 01:49:28;;;;;;;18.63;11.37;;;5.80;99.90;;;;;;5077094;28;20331;-79
2022/11/29 01:52:01;;;;;;;16.00;10.93;;;5.70;99.90;;;;;;5075922;28;20190;-80
2022/11/29 01:54:29;;;;;;;14.87;10.27;;;5.70;99.90;;;;;;5076861;28;20214;-79
2022/11/29 01:56:54;;;;;;;16.33;11.23;;;5.70;99.90;;;;;;5095126;28;20180;-79
2022/11/29 01:59:26;;;;;;;16.63;12.13;;;5.70;99.90;;;;;;5095226;28;20191;-80
2022/11/29 02:01:54;;;;;;;15.60;10.80;;;5.70;99.90;;;;;;5094868;28;20175;-79
2022/11/29 02:04:20;;;;;;;16.93;11.10;;;5.70;99.90;;;;;;5090399;28;20187;-79
2022/11/29 02:06:46;;;;;;;17.70;11.57;;;5.70;99.90;;;;;;5068714;28;20241;-80
2022/11/29 02:09:19;;;;;;;15.27;10.47;;;5.70;99.90;;;;;;5094852;28;20677;-79
2022/11/29 02:12:04;;;;;;;16.63;10.93;;;5.70;99.90;;;;;;5077019;28;20183;-79
2022/11/29 02:14:52;;;;;;;17.07;10.83;;;5.70;99.90;;;;;;5076425;28;20248;-79
2022/11/29 02:17:31;;;;;;;15.70;10.90;;;5.60;99.90;;;;;;5095280;28;20165;-79
2022/11/29 02:20:24;;;;;;;15.57;10.50;;;5.60;99.90;;;;;;5059465;28;20200;-80
2022/11/29 02:23:09;;;;;;;15.90;11.40;;;5.60;99.90;;;;;;5074497;28;20193;-80
2022/11/29 02:25:47;;;;;;;13.00;9.70;;;5.60;99.90;;;;;;5056375;28;20176;-80
2022/11/29 02:28:33;;;;;;;15.33;10.50;;;5.60;99.90;;;;;;5056555;28;20170;-79
2022/11/29 02:31:10;;;;;;;14.87;10.33;;;5.60;99.90;;;;;;5056209;28;20174;-79
2022/11/29 02:34:00;;;;;;;16.97;10.07;;;5.60;99.90;;;;;;5074599;28;20220;-79
2022/11/29 02:36:35;;;;;;;14.67;9.97;;;5.60;99.90;;;;;;5074077;28;20176;-79
2022/11/29 02:39:06;;;;;;;17.10;10.97;;;5.60;99.90;;;;;;5056645;28;20207;-79
2022/11/29 02:41:46;;;;;;;14.33;9.87;;;5.60;99.90;;;;;;5056647;28;20174;-80
2022/11/29 02:44:17;;;;;;;14.67;10.37;;;5.60;99.90;;;;;;5056250;28;20183;-82
2022/11/29 02:46:48;;;;;;;15.00;10.23;;;5.60;99.90;;;;;;5056766;28;20184;-79
2022/11/29 02:49:40;;;;;;;16.03;10.63;;;5.60;99.90;;;;;;5081839;28;20195;-80
2022/11/29 02:52:11;;;;;;;16.20;10.40;;;5.70;99.90;;;;;;5083535;28;20184;-79
2022/11/29 02:54:57;;;;;;;14.93;9.90;;;5.60;99.90;;;;;;5086162;28;20198;-79
2022/11/29 02:57:35;;;;;;;14.43;9.97;;;5.60;99.90;;;;;;5076327;28;20547;-79
2022/11/29 03:00:12;;;;;;;15.43;10.60;;;5.60;99.90;;;;;;5094941;28;20183;-79
2022/11/29 03:02:56;;;;;;;14.97;10.40;;;5.60;99.90;;;;;;5059648;28;20286;-79
2022/11/29 03:05:40;;;;;;;14.30;10.27;;;5.60;99.90;;;;;;5080117;28;20172;-79
2022/11/29 03:08:42;;;;;;;14.23;10.80;;;5.60;99.90;;;;;;5098302;28;20197;-80
2022/11/29 03:11:08;;;;;;;15.97;10.43;;;5.50;99.90;;;;;;5098043;28;20175;-79
2022/11/29 03:13:45;;;;;;;15.43;10.23;;;5.50;99.90;;;;;;5097627;28;20194;-79
2022/11/29 03:16:22;;;;;;;17.03;11.00;;;5.50;99.90;;;;;;5079995;28;20167;-82
2022/11/29 03:18:59;;;;;;;15.53;10.10;;;5.60;99.90;;;;;;5098238;28;20220;-79
2022/11/29 03:21:34;;;;;;;15.20;10.30;;;5.60;99.90;;;;;;5079828;28;20199;-80
2022/11/29 03:24:17;;;;;;;13.97;10.03;;;5.60;99.90;;;;;;5079927;28;20182;-79
2022/11/29 03:26:58;;;;;;;15.43;10.03;;;5.60;99.90;;;;;;5062885;28;20180;-79
2022/11/29 03:29:35;;;;;;;15.60;10.40;;;5.60;99.90;;;;;;5079516;28;20199;-79
2022/11/29 03:32:11;;;;;;;15.33;10.20;;;5.60;99.90;;;;;;5059689;28;20178;-80
2022/11/29 03:35:03;;;;;;;14.23;9.67;;;5.60;99.90;;;;;;5059209;28;20194;-79
2022/11/29 03:37:36;;;;;;;12.20;9.20;;;5.60;99.90;;;;;;5059080;28;20172;-79
2022/11/29 03:40:05;;;;;;;13.67;9.83;;;5.60;99.90;;;;;;5077312;28;20234;-80
2022/11/29 03:43:02;;;;;;;12.67;9.17;;;5.60;99.90;;;;;;5077077;28;20173;-79
2022/11/29 03:45:41;;;;;;;12.37;9.03;;;5.60;99.90;;;;;;5077071;28;20172;-79
2022/11/29 03:48:19;;;;;;;12.13;9.23;;;5.70;99.90;;;;;;5077423;28;20267;-80
2022/11/29 03:50:58;;;;;;;13.70;9.70;;;5.70;99.90;;;;;;5077200;28;20171;-80
2022/11/29 03:53:33;;;;;;;14.00;9.40;;;5.70;99.90;;;;;;5059081;28;20199;-79
2022/11/29 03:56:01;;;;;;;13.13;9.10;;;5.70;99.90;;;;;;5059105;28;20180;-81
2022/11/29 03:58:45;;;;;;;12.80;9.37;;;5.70;99.90;;;;;;5077201;28;20258;-79
2022/11/29 04:01:32;;;;;;;13.20;9.10;;;5.60;99.90;;;;;;5058692;28;20176;-80
2022/11/29 04:04:35;;;;;;;12.73;9.00;;;5.60;99.90;;;;;;5076203;28;20572;-79
2022/11/29 04:07:19;;;;;;;13.60;9.03;;;5.60;99.90;;;;;;5058651;28;20179;-79
2022/11/29 04:10:03;;;;;;;12.83;8.40;;;5.60;99.90;;;;;;5058822;28;20211;-79
2022/11/29 04:13:01;;;;;;;12.87;8.77;;;5.70;99.90;;;;;;5076409;28;20177;-79
2022/11/29 04:16:06;;;;;;;12.67;8.37;;;5.70;99.90;;;;;;5076064;28;20297;-79
2022/11/29 04:18:50;;;;;;;14.27;9.10;;;5.70;99.90;;;;;;5058597;28;20180;-80
2022/11/29 04:21:48;;;;;;;14.30;8.63;;;5.70;99.90;;;;;;5058323;28;20329;-79
2022/11/29 04:24:32;;;;;;;14.03;9.43;;;5.60;99.90;;;;;;5076063;28;20174;-79
2022/11/29 04:26:58;;;;;;;13.90;9.20;;;5.60;99.90;;;;;;5058408;28;20204;-80
2022/11/29 04:29:51;;;;;;;14.37;9.53;;;5.60;99.90;;;;;;5057965;28;20270;-79
2022/11/29 04:32:55;;;;;;;13.03;8.37;;;5.60;99.90;;;;;;5076273;28;20652;-79
2022/11/29 04:35:51;;;;;;;12.23;8.80;;;5.60;99.90;;;;;;5063639;28;20214;-80
2022/11/29 04:38:56;;;;;;;13.03;9.33;;;5.60;99.90;;;;;;5058182;28;20183;-79
2022/11/29 04:42:00;;;;;;;14.33;9.53;;;5.60;99.90;;;;;;5076045;28;20175;-81
2022/11/29 04:44:54;;;;;;;12.27;8.47;;;5.60;99.90;;;;;;5058114;28;20170;-79
2022/11/29 04:47:45;;;;;;;14.77;9.63;;;5.60;99.90;;;;;;5058220;28;20195;-79
2022/11/29 04:50:32;;;;;;;15.30;9.47;;;5.60;99.90;;;;;;5057999;28;20322;-79
2022/11/29 04:53:28;;;;;;;15.33;9.50;;;5.60;99.90;;;;;;5076185;28;20186;-80
2022/11/29 04:56:33;;;;;;;16.17;10.30;;;5.60;99.90;;;;;;5076076;28;20296;-79
2022/11/29 04:59:07;;;;;;;14.80;9.40;;;5.60;99.90;;;;;;5057984;28;20196;-79
2022/11/29 05:01:53;;;;;;;16.13;10.13;;;5.50;99.90;;;;;;5075766;28;20266;-79
2022/11/29 05:04:25;;;;;;;15.03;9.53;;;5.50;99.90;;;;;;5057954;28;20172;-79
2022/11/29 05:07:06;;;;;;;16.33;9.87;;;5.50;99.90;;;;;;5057784;28;20231;-79
2022/11/29 05:09:38;;;;;;;18.10;10.33;;;5.50;99.90;;;;;;5058044;28;20219;-79
2022/11/29 05:12:17;;;;;;;15.47;10.10;;;5.50;99.90;;;;;;5075404;28;20169;-79
2022/11/29 05:15:20;;;;;;;17.97;10.70;;;5.50;99.90;;;;;;5057259;28;20198;-79
2022/11/29 05:17:58;;;;;;;13.17;9.33;;;5.60;99.90;;;;;;5057319;28;20167;-80
2022/11/29 05:20:47;;;;;;;15.17;9.93;;;5.60;99.90;;;;;;5057268;28;20277;-79
2022/11/29 05:23:46;;;;;;;14.47;9.83;;;5.60;99.90;;;;;;5075041;28;20178;-79
2022/11/29 05:26:24;;;;;;;12.83;9.23;;;5.60;99.90;;;;;;5056971;28;20176;-79
2022/11/29 05:29:08;;;;;;;14.67;9.67;;;5.60;99.90;;;;;;5074755;28;20240;-79
2022/11/29 05:31:50;;;;;;;13.93;9.37;;;5.60;99.90;;;;;;5057378;28;20263;-79
2022/11/29 05:34:46;;;;;;;13.40;9.57;;;5.60;99.90;;;;;;5057226;28;20203;-79
2022/11/29 05:37:18;;;;;;;14.50;9.97;;;5.70;99.90;;;;;;5056988;28;20641;-79
2022/11/29 05:39:55;;;;;;;14.27;9.83;;;5.70;99.90;;;;;;5075342;28;20580;-80
2022/11/29 05:42:55;;;;;;;15.20;10.00;;;5.70;99.90;;;;;;5057303;28;20181;-81
2022/11/29 05:45:47;;;;;;;14.43;9.13;;;5.70;99.90;;;;;;5075774;28;20679;-79
2022/11/29 05:48:30;;;;;;;16.17;9.90;;;5.70;99.90;;;;;;5057268;28;20179;-80
2022/11/29 05:51:14;;;;;;;13.80;9.67;;;5.70;99.90;;;;;;5057277;28;20272;-80
2022/11/29 05:53:54;;;;;;;15.20;10.03;;;5.70;99.90;;;;;;5057041;28;20202;-79
2022/11/29 05:56:53;;;;;;;14.77;9.77;;;5.70;99.90;;;;;;5057809;28;20181;-80
2022/11/29 05:59:25;;;;;;;14.40;9.73;;;5.70;99.90;;;;;;5076319;28;20263;-78
2022/11/29 06:02:18;;;;;;;13.57;9.83;;;5.70;99.90;;;;;;5076811;28;20207;-78
2022/11/29 06:04:53;;;;;;;18.93;11.97;;;5.70;99.90;;;;;;5058532;28;20221;-78
2022/11/29 06:07:25;;;;;;;15.53;9.80;;;5.70;99.90;;;;;;5058489;28;20316;-77
2022/11/29 06:09:53;;;;;;;11.53;8.10;;;6.00;99.90;;;;;;5054808;28;20200;-80
2022/11/29 06:12:22;;;;;;;12.07;8.33;;;6.10;99.90;;;;;;5054730;28;20275;-79
2022/11/29 06:15:03;;;;;;;13.33;9.00;;;6.30;99.90;;;;;;5055765;28;20225;-78
2022/11/29 06:17:43;;;;;;;13.03;8.77;;;6.60;99.90;;;;;;5058263;28;20183;-81
2022/11/29 06:20:37;;;;;;;13.50;8.83;;;6.60;99.90;;;;;;5059433;28;20192;-80
2022/11/29 06:23:27;;;;;;;13.00;9.07;;;6.40;99.90;;;;;;5058529;28;20175;-80
2022/11/29 06:26:28;;;;;;;13.90;8.87;;;6.30;99.90;;;;;;5075925;28;20661;-80
2022/11/29 06:29:18;;;;;;;12.30;8.90;;;6.20;99.90;;;;;;5057553;28;20206;-79
2022/11/29 06:31:49;;;;;;;12.03;8.87;;;6.10;99.90;;;;;;5075244;28;20175;-80
2022/11/29 06:34:22;;;;;;;13.30;9.33;;;6.00;99.90;;;;;;5057793;28;20202;-80
2022/11/29 06:36:56;;;;;;;13.37;9.03;;;5.90;99.90;;;;;;5057825;28;20211;-80
2022/11/29 06:39:22;;;;;;;14.00;9.20;;;5.80;99.90;;;;;;5082959;22;20288;-84
2022/11/29 06:41:48;;;;;;;13.00;8.87;;;5.80;99.90;;;;;;5074622;28;20182;-83
2022/11/29 06:44:14;;;;;;;15.03;9.73;;;5.80;99.90;;;;;;5075616;28;20184;-84
2022/11/29 06:46:45;;;;;;;14.67;9.57;;;5.70;99.90;;;;;;5074762;28;20184;-85
2022/11/29 06:49:27;;;;;;;13.27;9.30;;;5.70;99.90;;;;;;5074551;28;20642;-85
2022/11/29 06:52:11;;;;;;;14.30;9.60;;;5.70;99.90;;;;;;5074663;28;20185;-84
2022/11/29 06:54:58;;;;;;;13.37;9.20;;;5.70;99.90;;;;;;5074315;28;20200;-84
2022/11/29 06:57:44;;;;;;;14.07;9.70;;;5.80;99.90;;;;;;5074325;28;20290;-84
2022/11/29 07:00:27;;;;;;;16.73;9.57;;;5.80;99.90;;;;;;5076509;28;20190;-84
2022/11/29 07:03:22;;;;;;;13.63;9.00;;;5.80;99.90;;;;;;5074047;28;20171;-84
2022/11/29 07:05:47;;;;;;;14.50;9.53;;;5.80;99.90;;;;;;5075297;28;20164;-84
2022/11/29 07:08:17;;;;;;;13.70;9.30;;;5.80;99.90;;;;;;5073805;28;20178;-84
2022/11/29 07:10:44;;;;;;;13.97;9.77;;;5.80;99.90;;;;;;5073854;28;20677;-84
2022/11/29 07:13:13;;;;;;;14.93;10.33;;;5.80;99.90;;;;;;5073746;28;20177;-84
2022/11/29 07:16:05;;;;;;;13.67;8.97;;;5.90;99.90;;;;;;5075095;28;20169;-84
2022/11/29 07:18:42;;;;;;;13.70;9.60;;;5.80;99.90;;;;;;5064523;28;20188;-81
2022/11/29 07:21:17;;;;;;;12.90;9.37;;;5.80;99.90;;;;;;5076679;28;20264;-84
2022/11/29 07:23:51;;;;;;;15.60;10.30;;;5.80;99.90;;;;;;5073964;28;20238;-82
2022/11/29 07:26:23;;;;;;;14.93;10.47;;;5.80;99.90;;;;;;5075213;28;20244;-83
2022/11/29 07:29:20;;;;;;;15.83;10.10;;;5.80;99.90;;;;;;5075150;28;20177;-84
2022/11/29 07:32:15;;;;;;;13.53;9.73;;;5.90;99.90;;;;;;5073859;28;20180;-86
2022/11/29 07:34:52;;;;;;;13.40;9.27;;;5.80;99.90;;;;;;5073956;28;20657;-83
2022/11/29 07:37:43;;;;;;;14.60;9.90;;;5.80;99.90;;;;;;5074813;28;20168;-82
2022/11/29 07:40:18;;;;;;;15.30;10.13;;;5.80;99.90;;;;;;5073447;28;20626;-83
2022/11/29 07:42:58;;;;;;;15.93;11.17;;;5.90;99.90;;;;;;5073460;28;20176;-82
2022/11/29 07:45:30;;;;;;;14.93;10.13;;;5.90;99.90;;;;;;5073593;28;20184;-82
2022/11/29 07:47:56;;;;;;;15.80;10.80;;;5.90;99.90;;;;;;5075083;28;20168;-82
2022/11/29 07:50:22;;;;;;;17.03;10.33;;;5.90;99.90;;;;;;5073896;28;20215;-80
2022/11/29 07:52:48;;;;;;;14.00;9.90;;;5.90;99.90;;;;;;5074648;28;20172;-82
2022/11/29 07:55:16;;;;;;;16.10;10.80;;;5.90;99.90;;;;;;5074512;28;20203;-82
2022/11/29 07:57:42;;;;;;;18.23;12.07;;;6.00;99.90;;;;;;5075861;28;20175;-82
2022/11/29 08:00:09;;;;;;;16.27;10.20;;;6.00;99.90;;;;;;5073855;28;20286;-82
2022/11/29 08:02:35;;;;;;;16.33;10.83;;;6.00;99.90;;;;;;5073193;28;20202;-83
2022/11/29 08:05:01;;;;;;;23.87;14.30;;;6.00;99.90;;;;;;5074804;28;20650;-83
2022/11/29 08:07:27;;;;;;;41.60;23.10;;;6.00;99.90;;;;;;5073305;28;20207;-82
2022/11/29 08:09:52;;;;;;;19.73;12.67;;;6.10;99.90;;;;;;5074318;28;20195;-82
2022/11/29 08:12:18;;;;;;;16.83;11.33;;;6.00;99.90;;;;;;5074901;28;20333;-83
2022/11/29 08:14:44;;;;;;;19.33;11.63;;;6.00;99.90;;;;;;5074691;28;20195;-83
2022/11/29 08:17:10;;;;;;;17.17;11.33;;;6.00;99.90;;;;;;5074523;28;20176;-82
2022/11/29 08:19:35;;;;;;;17.03;11.63;;;6.00;99.90;;;;;;5076716;28;20187;-83
2022/11/29 08:22:01;;;;;;;17.77;12.00;;;6.00;99.90;;;;;;5074562;28;20259;-82
2022/11/29 08:24:27;;;;;;;18.07;12.10;;;6.00;99.90;;;;;;5072445;28;20176;-84
2022/11/29 08:26:53;;;;;;;21.07;14.00;;;6.00;99.90;;;;;;5074395;28;20553;-83
2022/11/29 08:29:18;;;;;;;16.77;11.10;;;6.10;99.90;;;;;;5074452;28;20219;-81
2022/11/29 08:31:44;;;;;;;17.60;11.40;;;6.10;99.90;;;;;;5073408;28;20612;-84
2022/11/29 08:34:10;;;;;;;14.60;10.13;;;6.10;99.90;;;;;;5072689;28;20235;-80
2022/11/29 08:36:36;;;;;;;15.43;11.70;;;6.10;99.90;;;;;;5074654;28;20173;-80
2022/11/29 08:39:03;;;;;;;19.90;15.17;;;6.20;99.90;;;;;;5074384;28;20669;-85
2022/11/29 08:41:29;;;;;;;18.00;12.83;;;6.30;99.90;;;;;;5074751;28;20180;-82
2022/11/29 08:43:54;;;;;;;15.53;10.80;;;6.30;99.90;;;;;;5074815;28;20182;-82
2022/11/29 08:46:20;;;;;;;15.60;10.80;;;6.30;99.90;;;;;;5073136;28;20274;-81
2022/11/29 08:48:47;;;;;;;17.30;11.33;;;6.30;99.90;;;;;;5072930;28;20225;-81
2022/11/29 08:51:13;;;;;;;16.97;11.47;;;6.30;99.90;;;;;;5074604;28;20200;-82
2022/11/29 08:53:41;;;;;;;17.27;12.57;;;6.30;99.90;;;;;;5074198;28;20196;-81
2022/11/29 08:56:19;;;;;;;17.40;11.57;;;6.30;99.90;;;;;;5073563;28;20182;-81
2022/11/29 08:58:45;;;;;;;17.13;11.20;;;6.30;99.90;;;;;;5073723;28;20523;-83
2022/11/29 09:01:16;;;;;;;1048.37;303.77;;;6.30;99.90;;;;;;5074527;28;20286;-81
2022/11/29 09:03:58;;;;;;;285.17;79.20;;;7.10;99.90;;;;;;5072558;28;20172;-81
2022/11/29 09:06:26;;;;;;;118.23;39.23;;;8.60;99.90;;;;;;5073980;28;20188;-81
2022/11/29 09:08:55;;;;;;;52.27;21.57;;;9.10;99.90;;;;;;5074081;28;20227;-82
2022/11/29 09:11:22;;;;;;;43.27;19.07;;;9.10;99.90;;;;;;5072874;28;20177;-82
2022/11/29 09:13:50;;;;;;;26.27;12.30;;;9.50;99.90;;;;;;5073906;28;20202;-82
2022/11/29 09:16:19;;;;;;;12.00;8.93;;;10.30;99.90;;;;;;5072195;28;20188;-84
2022/11/29 09:18:45;;;;;;;13.40;8.90;;;9.80;99.90;;;;;;5073034;28;20542;-84
2022/11/29 09:21:12;;;;;;;12.37;9.20;;;9.20;99.90;;;;;;5071656;28;20229;-84
2022/11/29 09:23:40;;;;;;;14.23;10.13;;;8.30;99.90;;;;;;5072622;28;20648;-84
2022/11/29 09:26:06;;;;;;;18.93;14.77;;;7.90;99.90;;;;;;5072541;28;20567;-84
2022/11/29 09:28:33;;;;;;;15.23;10.20;;;7.60;99.90;;;;;;5072598;28;20600;-85
2022/11/29 09:31:12;;;;;;;17.87;13.13;;;7.30;99.90;;;;;;5071561;28;20217;-84
2022/11/29 09:33:41;;;;;;;16.93;13.07;;;7.10;99.90;;;;;;5071453;28;20206;-83
2022/11/29 09:36:09;;;;;;;15.63;10.13;;;6.90;99.90;;;;;;5071203;28;20258;-83
2022/11/29 09:38:35;;;;;;;18.03;12.63;;;6.80;99.90;;;;;;5071194;28;20178;-81
2022/11/29 09:41:19;;;;;;;21.63;14.87;;;7.00;99.90;;;;;;5071363;28;20761;-81
2022/11/29 09:44:08;;;;;;;19.00;13.67;;;8.10;99.90;;;;;;5072906;28;20228;-81
2022/11/29 09:46:37;;;;;;;17.90;13.50;;;8.60;99.90;;;;;;5081907;28;20616;-81
2022/11/29 09:49:21;;;;;;;13.77;10.00;;;9.10;99.90;;;;;;5084886;28;20180;-81
2022/11/29 09:52:07;;;;;;;14.77;11.57;;;9.00;99.90;;;;;;5089630;28;20172;-81
2022/11/29 09:55:22;;;;;;;15.60;10.30;;;8.90;99.90;;;;;;5091242;28;20571;-81
2022/11/29 09:57:49;;;;;;;13.10;9.57;;;9.00;99.90;;;;;;5091437;28;20246;-82
2022/11/29 10:00:16;;;;;;;14.50;9.90;;;8.60;99.90;;;;;;5091143;28;20256;-82
2022/11/29 10:03:01;;;;;;;13.20;9.53;;;8.60;99.90;;;;;;5091360;28;20649;-82
2022/11/29 10:06:06;;;;;;;17.17;11.50;;;8.60;99.90;;;;;;5087214;28;20661;-81
2022/11/29 10:08:35;;;;;;;17.23;11.57;;;8.20;99.90;;;;;;5067732;28;20189;-81
2022/11/29 10:11:42;;;;;;;30.73;16.23;;;7.60;99.90;;;;;;5087545;28;20202;-81
2022/11/29 10:14:19;;;;;;;34.33;18.93;;;8.00;99.90;;;;;;5095388;28;20282;-82
2022/11/29 10:16:53;;;;;;;31.37;17.43;;;9.60;99.90;;;;;;5101090;28;20175;-82
2022/11/29 10:19:28;;;;;;;19.17;11.03;;;10.80;99.90;;;;;;5100340;28;20201;-82
2022/11/29 10:22:02;;;;;;;15.20;10.13;;;11.30;99.90;;;;;;5098769;28;20175;-82
2022/11/29 10:24:30;;;;;;;14.53;9.23;;;11.50;99.90;;;;;;5096457;28;20706;-82
2022/11/29 10:26:55;;;;;;;14.23;8.67;;;11.20;99.90;;;;;;5096506;28;20179;-82
2022/11/29 10:29:22;;;;;;;16.83;10.37;;;11.00;99.90;;;;;;5096600;28;20196;-80
2022/11/29 10:31:48;;;;;;;15.23;10.33;;;11.20;99.90;;;;;;5097242;28;20182;-81
2022/11/29 10:34:25;;;;;;;18.93;11.17;;;10.10;99.90;;;;;;5095392;28;20207;-81
2022/11/29 10:36:58;;;;;;;18.90;11.37;;;9.20;99.90;;;;;;5095468;28;20168;-81
2022/11/29 10:39:41;;;;;;;19.50;13.20;;;8.50;99.90;;;;;;5095376;28;20703;-81
2022/11/29 10:45:01;;;;;;;20.73;13.50;;;7.70;99.90;;;;;;5096919;28;20176;-81
2022/11/29 10:47:27;;;;;;;19.60;13.03;;;7.40;99.90;;;;;;5096133;28;20308;-81
2022/11/29 10:49:53;;;;;;;23.30;13.33;;;7.20;99.90;;;;;;5096532;28;20201;-81
2022/11/29 10:52:21;;;;;;;22.73;13.30;;;7.10;99.90;;;;;;5097613;28;20177;-81
2022/11/29 10:54:48;;;;;;;22.80;14.37;;;7.00;99.90;;;;;;5096602;28;20239;-81
2022/11/29 10:57:17;;;;;;;26.40;13.73;;;6.90;99.90;;;;;;5096924;28;20176;-81
2022/11/29 11:00:11;;;;;;;22.07;13.60;;;6.90;99.90;;;;;;5095380;28;20194;-81
2022/11/29 11:02:37;;;;;;;23.07;13.33;;;6.80;99.90;;;;;;5098915;28;20210;-80
2022/11/29 11:05:12;;;;;;;22.87;13.70;;;6.70;99.90;;;;;;5101731;28;20169;-81
2022/11/29 11:07:37;;;;;;;23.90;14.17;;;6.70;99.90;;;;;;5098280;28;20189;-81
2022/11/29 11:10:36;;;;;;;26.00;14.43;;;6.70;99.90;;;;;;5096575;28;20192;-82
2022/11/29 11:13:05;;;;;;;22.00;13.20;;;6.70;99.90;;;;;;5054241;28;20177;-81
2022/11/29 11:15:32;;;;;;;24.00;13.73;;;6.70;99.90;;;;;;5097890;28;20200;-81
2022/11/29 11:17:59;;;;;;;23.73;13.13;;;6.70;99.90;;;;;;5095900;28;20183;-81
2022/11/29 11:20:29;;;;;;;22.93;13.23;;;6.60;99.90;;;;;;5094733;28;20196;-81
2022/11/29 11:22:59;;;;;;;24.83;13.00;;;6.70;99.90;;;;;;5094724;28;20179;-81
2022/11/29 11:25:33;;;;;;;25.90;13.60;;;6.70;99.90;;;;;;5094547;28;20665;-81
2022/11/29 11:28:14;;;;;;;26.57;13.53;;;6.70;99.90;;;;;;5094834;28;20168;-81
2022/11/29 11:31:07;;;;;;;24.33;12.83;;;6.70;99.90;;;;;;5095909;28;20271;-81
2022/11/29 11:33:39;;;;;;;30.20;13.93;;;6.60;99.90;;;;;;5094867;28;20218;-81
2022/11/29 11:36:04;;;;;;;26.93;13.03;;;6.60;99.90;;;;;;5094739;28;20177;-81
2022/11/29 11:38:31;;;;;;;41.97;18.83;;;6.70;99.90;;;;;;5094862;28;20172;-81
2022/11/29 11:41:17;;;;;;;30.17;13.50;;;6.60;99.90;;;;;;5094713;28;20234;-81
2022/11/29 11:43:58;;;;;;;31.97;14.50;;;6.80;99.90;;;;;;5094266;28;20180;-81
2022/11/29 11:46:50;;;;;;;28.80;13.77;;;6.80;99.90;;;;;;5095942;28;20168;-80
2022/11/29 11:49:29;;;;;;;29.20;14.87;;;6.80;99.90;;;;;;5096098;28;20196;-81
2022/11/29 11:51:55;;;;;;;26.63;13.30;;;6.80;99.90;;;;;;5095879;28;20180;-82
2022/11/29 11:54:21;;;;;;;27.30;13.60;;;6.80;99.90;;;;;;5095308;28;20341;-81
2022/11/29 11:56:47;;;;;;;22.23;10.47;;;6.80;99.90;;;;;;5093588;28;20670;-83
2022/11/29 11:59:20;;;;;;;22.17;11.00;;;6.90;99.90;;;;;;5094544;28;20245;-84
2022/11/29 12:01:45;;;;;;;21.10;10.57;;;7.50;99.90;;;;;;5094978;28;20186;-84
2022/11/29 12:04:29;;;;;;;20.43;10.97;;;7.80;99.90;;;;;;5094603;28;20182;-83
2022/11/29 12:06:58;;;;;;;20.37;10.07;;;8.10;99.90;;;;;;5094620;28;20177;-84
2022/11/29 12:09:43;;;;;;;22.37;11.20;;;8.60;99.90;;;;;;5094504;28;20197;-84
2022/11/29 12:12:20;;;;;;;36.83;16.47;;;8.80;99.90;;;;;;5093295;28;20204;-83
2022/11/29 12:15:07;;;;;;;21.43;11.67;;;8.80;99.90;;;;;;5093152;28;20205;-84
2022/11/29 12:17:59;;;;;;;18.47;10.70;;;9.00;99.90;;;;;;5093172;28;20182;-83
2022/11/29 12:21:02;;;;;;;19.83;10.57;;;8.90;99.90;;;;;;5093076;28;20193;-81
2022/11/29 12:23:52;;;;;;;22.37;10.10;;;8.30;99.90;;;;;;5092953;28;20178;-83
2022/11/29 12:26:22;;;;;;;19.40;9.83;;;9.90;99.90;;;;;;5093118;28;20180;-80
2022/11/29 12:28:49;;;;;;;15.50;8.83;;;10.70;99.90;;;;;;5094311;28;20172;-82
2022/11/29 12:31:36;;;;;;;16.97;9.73;;;10.60;99.90;;;;;;5093968;28;20188;-85
2022/11/29 12:34:24;;;;;;;18.73;10.43;;;10.70;99.90;;;;;;5092306;28;20670;-86
2022/11/29 12:36:57;;;;;;;16.93;10.60;;;9.60;99.90;;;;;;5093141;28;20203;-84
2022/11/29 12:42:06;;;;;;;20.20;11.67;;;8.40;99.90;;;;;;5032119;28;20217;-82
2022/11/29 12:44:37;;;;;;;20.37;11.83;;;8.00;99.90;;;;;;5015723;28;20173;-83
2022/11/29 12:47:44;;;;;;;18.43;11.20;;;7.70;99.90;;;;;;5016118;28;20179;-83
2022/11/29 12:50:16;;;;;;;19.87;10.70;;;7.50;99.90;;;;;;4998941;28;20211;-83
2022/11/29 12:52:57;;;;;;;18.37;10.90;;;7.40;99.90;;;;;;5032769;28;20648;-83
2022/11/29 12:55:29;;;;;;;19.07;11.17;;;7.30;99.90;;;;;;5032684;28;20204;-83
2022/11/29 12:58:06;;;;;;;22.43;12.43;;;7.20;99.90;;;;;;5032855;28;20205;-83
2022/11/29 13:00:41;;;;;;;20.97;11.07;;;7.20;99.90;;;;;;5033496;28;20195;-83
2022/11/29 13:03:40;;;;;;;19.63;10.47;;;7.10;99.90;;;;;;5032440;28;20175;-83
2022/11/29 13:06:06;;;;;;;17.73;10.67;;;7.20;99.90;;;;;;5008846;28;20181;-83
2022/11/29 13:08:55;;;;;;;19.60;10.50;;;7.10;99.90;;;;;;5032687;28;20176;-83
2022/11/29 13:11:33;;;;;;;20.33;11.03;;;7.10;99.90;;;;;;5032291;28;20198;-82
2022/11/29 13:14:35;;;;;;;21.40;11.33;;;7.10;99.90;;;;;;5033304;28;20198;-83
2022/11/29 13:17:04;;;;;;;18.37;9.40;;;7.10;99.90;;;;;;5033372;28;20179;-83
2022/11/29 13:19:48;;;;;;;20.60;11.40;;;7.30;99.90;;;;;;5032288;28;20171;-83
2022/11/29 13:22:38;;;;;;;19.83;10.60;;;7.40;99.90;;;;;;5033149;28;20178;-81
2022/11/29 13:25:11;;;;;;;18.63;10.83;;;7.40;99.90;;;;;;5033468;28;20290;-83
2022/11/29 13:27:41;;;;;;;19.67;10.60;;;7.40;99.90;;;;;;5028231;28;20178;-82
2022/11/29 13:30:12;;;;;;;19.70;11.13;;;7.20;99.90;;;;;;5013361;28;20682;-82
2022/11/29 13:33:01;;;;;;;18.03;10.23;;;7.20;99.90;;;;;;5013257;28;20168;-81